Time;durP1;ratioP1;P1;durP2;ratioP2;P2;SDS_P1;SDS_P2;PMS_P1;PMS_P2;Temp;Humidity;BMP_temperature;BMP_pressure;BME280_temperature;BME280_humidity;BME280_pressure;Samples;Min_cycle;Max_cycle;Signal;HPM_P1;HPM_P2
2022/07/12 00:02:04;;;;;;;1.30;1.20;;;;;;;12.77;77.14;100456.23;106435;1270;22577;-76
2022/07/12 00:04:31;;;;;;;1.60;1.20;;;;;;;12.74;77.38;100455.91;105766;1276;22536;-81
2022/07/12 00:06:58;;;;;;;1.00;0.90;;;;;;;12.72;77.34;100457.02;105939;1277;22539;-80
2022/07/12 00:09:25;;;;;;;2.00;0.80;;;;;;;12.70;77.61;100460.77;106451;1276;22531;-82
2022/07/12 00:11:52;;;;;;;2.70;0.90;;;;;;;12.67;77.76;100461.35;105352;1282;24248;-83
2022/07/12 00:14:18;;;;;;;1.40;0.90;;;;;;;12.63;77.92;100465.81;105267;1282;22543;-81
2022/07/12 00:16:45;;;;;;;3.60;1.00;;;;;;;12.61;77.99;100463.73;105749;1281;22669;-80
2022/07/12 00:19:12;;;;;;;1.80;1.00;;;;;;;12.63;78.00;100465.65;105347;1282;22774;-77
2022/07/12 00:21:39;;;;;;;3.60;1.50;;;;;;;12.62;78.15;100468.31;105063;1282;26527;-78
2022/07/12 00:24:06;;;;;;;2.30;1.30;;;;;;;12.62;78.13;100470.09;105793;1277;22526;-77
2022/07/12 00:26:33;;;;;;;4.20;1.50;;;;;;;12.62;78.21;100468.84;105527;1279;24246;-75
2022/07/12 00:28:59;;;;;;;2.10;1.20;;;;;;;12.61;78.28;100466.91;105462;1278;22668;-77
2022/07/12 00:31:26;;;;;;;3.70;1.30;;;;;;;12.55;78.15;100457.48;106143;1271;24417;-78
2022/07/12 00:33:53;;;;;;;2.10;1.00;;;;;;;12.57;78.41;100465.39;106295;1270;22547;-76
2022/07/12 00:36:20;;;;;;;1.90;1.20;;;;;;;12.58;78.36;100463.60;106027;1271;22542;-76
2022/07/12 00:38:48;;;;;;;2.30;1.10;;;;;;;12.55;78.48;100454.31;106327;1271;22551;-80
2022/07/12 00:41:15;;;;;;;4.60;1.40;;;;;;;12.53;78.48;100455.02;106315;1270;24251;-77
2022/07/12 00:43:42;;;;;;;1.40;1.00;;;;;;;12.51;78.63;100457.00;106284;1270;22692;-78
2022/07/12 00:46:09;;;;;;;5.70;1.40;;;;;;;12.50;78.90;100451.70;106217;1270;22547;-81
2022/07/12 00:48:37;;;;;;;4.40;1.70;;;;;;;12.49;78.75;100452.63;106609;1271;22540;-78
2022/07/12 00:51:04;;;;;;;1.10;1.00;;;;;;;12.50;78.95;100448.73;107177;1271;22547;-80
2022/07/12 00:53:31;;;;;;;6.00;1.60;;;;;;;12.50;78.90;100453.14;107141;1270;22576;-81
2022/07/12 00:55:58;;;;;;;2.20;1.10;;;;;;;12.47;78.80;100455.66;106269;1270;24102;-80
2022/07/12 00:58:28;;;;;;;1.30;1.20;;;;;;;12.48;79.10;100455.47;106173;1271;25246;-80
2022/07/12 01:00:57;;;;;;;3.10;1.20;;;;;;;12.47;79.04;100456.90;106345;1270;25245;-80
2022/07/12 01:03:24;;;;;;;2.90;1.30;;;;;;;12.45;79.18;100458.15;106344;1271;22535;-82
2022/07/12 01:05:51;;;;;;;4.40;1.30;;;;;;;12.41;79.35;100459.98;106216;1271;22696;-81
2022/07/12 01:08:19;;;;;;;1.90;1.10;;;;;;;12.38;79.40;100461.46;106297;1270;25310;-82
2022/07/12 01:10:49;;;;;;;3.30;1.80;;;;;;;12.34;79.46;100459.02;106219;1271;24317;-82
2022/07/12 01:13:17;;;;;;;3.90;1.30;;;;;;;12.36;79.79;100460.94;106251;1270;23922;-81
2022/07/12 01:15:47;;;;;;;2.50;1.60;;;;;;;12.35;79.75;100460.26;106200;1271;24351;-83
2022/07/12 01:18:15;;;;;;;3.20;1.10;;;;;;;12.34;79.87;100460.80;106113;1271;22541;-81
2022/07/12 01:20:44;;;;;;;1.70;1.20;;;;;;;12.34;80.15;100458.69;106214;1270;24224;-79
2022/07/12 01:23:13;;;;;;;4.70;1.30;;;;;;;12.34;80.03;100462.38;106470;1271;22544;-81
2022/07/12 01:25:40;;;;;;;3.50;1.50;;;;;;;12.35;80.03;100457.79;106351;1271;22583;-81
2022/07/12 01:28:07;;;;;;;3.50;1.20;;;;;;;12.35;80.10;100453.90;106252;1270;25246;-81
2022/07/12 01:30:34;;;;;;;3.90;1.30;;;;;;;12.35;80.17;100450.89;106218;1271;22582;-82
2022/07/12 01:33:01;;;;;;;4.50;1.50;;;;;;;12.36;80.27;100447.01;106418;1270;22550;-80
2022/07/12 01:35:30;;;;;;;1.90;1.30;;;;;;;12.39;80.33;100448.38;106274;1270;23909;-79
2022/07/12 01:37:57;;;;;;;1.50;1.20;;;;;;;12.41;80.35;100445.17;106355;1270;25650;-81
2022/07/12 01:40:24;;;;;;;1.40;1.10;;;;;;;12.38;80.29;100443.62;106358;1271;22525;-82
2022/07/12 01:42:53;;;;;;;4.50;2.00;;;;;;;12.35;80.28;100444.71;106720;1270;22622;-82
2022/07/12 01:45:21;;;;;;;2.50;1.30;;;;;;;12.34;80.49;100443.67;108622;1276;22606;-82
2022/07/12 01:47:48;;;;;;;4.30;1.50;;;;;;;12.36;80.55;100447.34;108015;1276;25320;-82
2022/07/12 01:50:16;;;;;;;3.50;1.60;;;;;;;12.37;80.60;100443.98;105845;1276;25255;-83
2022/07/12 01:52:44;;;;;;;3.80;1.80;;;;;;;12.37;80.59;100440.63;105635;1276;22529;-81
2022/07/12 01:55:11;;;;;;;6.40;1.80;;;;;;;12.33;80.61;100438.04;105721;1276;22643;-81
2022/07/12 01:57:41;;;;;;;4.50;1.70;;;;;;;12.31;80.56;100438.24;105731;1276;22662;-80
2022/07/12 02:00:08;;;;;;;3.10;1.50;;;;;;;12.32;80.88;100431.52;105966;1276;25444;-80
2022/07/12 02:02:35;;;;;;;2.40;1.50;;;;;;;12.34;80.84;100427.08;105750;1274;25394;-82
2022/07/12 02:05:04;;;;;;;2.60;1.40;;;;;;;12.30;80.82;100423.24;106581;1270;22603;-81
2022/07/12 02:07:32;;;;;;;3.60;1.90;;;;;;;12.26;81.11;100418.18;106571;1270;25477;-82
2022/07/12 02:09:59;;;;;;;3.20;1.70;;;;;;;12.27;81.29;100417.47;106397;1270;23260;-80
2022/07/12 02:12:26;;;;;;;4.20;1.80;;;;;;;12.28;81.19;100420.27;106447;1270;22626;-75
2022/07/12 02:14:53;;;;;;;4.00;1.40;;;;;;;12.28;81.31;100423.63;106294;1270;26611;-78
2022/07/12 02:17:20;;;;;;;2.90;1.40;;;;;;;12.26;81.37;100423.14;105977;1270;24243;-75
2022/07/12 02:19:47;;;;;;;5.60;2.30;;;;;;;12.26;81.50;100424.02;106047;1271;22544;-75
2022/07/12 02:22:14;;;;;;;3.90;1.80;;;;;;;12.31;81.60;100426.23;105845;1271;24282;-74
2022/07/12 02:24:41;;;;;;;2.00;1.30;;;;;;;12.35;81.72;100428.98;106191;1270;25232;-74
2022/07/12 02:27:08;;;;;;;3.10;1.80;;;;;;;12.38;81.77;100426.30;105927;1270;25297;-74
2022/07/12 02:29:38;;;;;;;3.70;1.60;;;;;;;12.41;81.86;100425.74;106060;1270;25257;-75
2022/07/12 02:32:05;;;;;;;4.10;1.70;;;;;;;12.42;81.89;100423.59;106039;1273;22485;-76
2022/07/12 02:34:31;;;;;;;4.20;1.90;;;;;;;12.45;81.79;100422.48;106222;1270;25263;-76
2022/07/12 02:36:58;;;;;;;5.80;2.10;;;;;;;12.50;81.83;100418.33;105776;1277;23131;-77
2022/07/12 02:39:25;;;;;;;4.00;1.60;;;;;;;12.54;81.86;100412.80;105759;1276;22774;-76
2022/07/12 02:41:52;;;;;;;3.40;1.70;;;;;;;12.59;81.77;100414.30;105694;1276;22547;-76
2022/07/12 02:44:19;;;;;;;2.10;1.10;;;;;;;12.61;81.58;100405.61;106216;1276;22537;-76
2022/07/12 02:46:46;;;;;;;2.40;1.60;;;;;;;12.63;81.40;100401.16;106392;1276;22555;-76
2022/07/12 02:49:14;;;;;;;4.20;1.80;;;;;;;12.64;81.53;100399.57;105913;1277;25303;-76
2022/07/12 02:51:41;;;;;;;4.20;1.90;;;;;;;12.66;81.58;100399.88;105780;1278;25345;-81
2022/07/12 02:54:08;;;;;;;2.90;1.50;;;;;;;12.67;81.60;100397.21;105884;1277;22847;-84
2022/07/12 02:56:35;;;;;;;3.60;1.80;;;;;;;12.66;81.48;100398.29;106190;1273;22618;-83
2022/07/12 02:59:02;;;;;;;5.90;1.90;;;;;;;12.67;81.54;100397.94;106209;1270;25245;-81
2022/07/12 03:01:28;;;;;;;3.30;1.60;;;;;;;12.70;81.74;100404.56;106534;1270;25366;-81
2022/07/12 03:03:55;;;;;;;7.10;2.00;;;;;;;12.72;81.67;100399.23;106546;1271;24261;-79
2022/07/12 03:06:22;;;;;;;2.50;1.60;;;;;;;12.72;81.70;100398.88;106508;1271;23912;-82
2022/07/12 03:08:50;;;;;;;5.20;1.80;;;;;;;12.74;81.73;100401.15;106254;1271;22537;-82
2022/07/12 03:11:17;;;;;;;5.20;1.80;;;;;;;12.74;81.63;100404.33;106415;1271;22546;-82
2022/07/12 03:13:44;;;;;;;5.40;2.10;;;;;;;12.78;81.80;100401.23;106327;1272;22842;-79
2022/07/12 03:16:10;;;;;;;6.80;1.90;;;;;;;12.84;81.69;100401.85;106463;1271;25279;-79
2022/07/12 03:18:40;;;;;;;1.50;1.30;;;;;;;12.85;81.44;100400.77;106303;1271;25264;-79
2022/07/12 03:21:07;;;;;;;4.50;1.60;;;;;;;12.84;81.35;100406.63;106228;1271;25244;-80
2022/07/12 03:23:34;;;;;;;3.60;1.70;;;;;;;12.84;81.38;100407.34;106200;1271;25258;-78
2022/07/12 03:26:02;;;;;;;10.30;2.40;;;;;;;12.84;81.52;100407.33;106180;1271;22554;-77
2022/07/12 03:28:28;;;;;;;5.90;2.00;;;;;;;12.82;81.46;100407.37;106162;1271;25363;-80
2022/07/12 03:30:55;;;;;;;3.60;1.90;;;;;;;12.84;81.72;100409.81;106151;1271;24208;-80
2022/07/12 03:33:23;;;;;;;2.80;1.50;;;;;;;12.84;81.76;100408.92;106197;1270;22540;-80
2022/07/12 03:35:58;;;;;;;3.20;1.70;;;;;;;12.91;81.83;100412.50;106157;1270;22616;-80
2022/07/12 03:38:25;;;;;;;4.40;2.10;;;;;;;12.96;81.52;100408.02;106247;1270;25394;-80
2022/07/12 03:40:52;;;;;;;2.40;1.60;;;;;;;12.96;81.46;100403.58;106138;1270;25518;-79
2022/07/12 03:43:19;;;;;;;7.30;2.20;;;;;;;12.93;81.34;100403.45;106153;1269;26695;-78
2022/07/12 03:45:46;;;;;;;4.00;2.10;;;;;;;12.94;81.55;100403.27;106350;1271;23083;-80
2022/07/12 03:48:13;;;;;;;3.20;2.00;;;;;;;12.93;81.52;100399.02;106333;1271;25324;-77
2022/07/12 03:50:40;;;;;;;8.90;2.80;;;;;;;12.94;81.75;100401.14;106057;1271;22691;-78
2022/07/12 03:53:07;;;;;;;4.60;2.20;;;;;;;12.97;81.74;100397.89;106434;1270;22655;-76
2022/07/12 03:55:34;;;;;;;7.20;1.90;;;;;;;12.99;81.72;100403.88;106058;1271;25251;-77
2022/07/12 03:58:00;;;;;;;4.50;2.50;;;;;;;13.02;81.84;100405.40;106133;1272;22648;-78
2022/07/12 04:00:27;;;;;;;5.90;1.80;;;;;;;13.05;81.93;100405.35;107465;1271;22554;-76
2022/07/12 04:02:54;;;;;;;4.50;1.80;;;;;;;13.08;81.79;100399.46;108179;1279;22534;-78
2022/07/12 04:05:25;;;;;;;8.50;2.20;;;;;;;13.11;81.66;100394.27;105994;1278;22552;-79
2022/07/12 04:07:54;;;;;;;3.80;1.40;;;;;;;13.17;81.74;100386.56;105674;1278;25241;-76
2022/07/12 04:10:21;;;;;;;7.50;2.40;;;;;;;13.22;81.73;100385.05;105844;1278;25167;-77
2022/07/12 04:12:48;;;;;;;8.40;2.40;;;;;;;13.28;81.71;100387.93;105872;1278;22548;-78
2022/07/12 04:15:16;;;;;;;7.90;2.60;;;;;;;13.32;81.60;100376.52;105695;1278;25397;-79
2022/07/12 04:17:43;;;;;;;7.80;1.90;;;;;;;13.33;81.41;100369.95;105883;1277;25252;-77
2022/07/12 04:20:10;;;;;;;4.40;2.00;;;;;;;13.39;81.39;100373.19;105753;1274;22543;-80
2022/07/12 04:22:39;;;;;;;5.00;2.20;;;;;;;13.41;81.48;100378.28;106390;1271;22671;-78
2022/07/12 04:25:07;;;;;;;5.10;1.80;;;;;;;13.45;81.25;100378.56;106335;1271;23329;-77
2022/07/12 04:27:34;;;;;;;8.60;2.10;;;;;;;13.45;81.12;100378.73;106380;1270;26476;-78
2022/07/12 04:30:03;;;;;;;4.10;2.00;;;;;;;13.43;81.08;100375.23;106284;1270;24414;-78
2022/07/12 04:32:30;;;;;;;4.10;2.20;;;;;;;13.43;80.87;100368.33;106364;1271;23264;-75
2022/07/12 04:34:57;;;;;;;7.00;2.20;;;;;;;13.42;81.16;100366.24;107348;1270;24294;-76
2022/07/12 04:37:23;;;;;;;4.90;2.40;;;;;;;13.46;81.12;100357.67;107104;1270;22467;-77
2022/07/12 04:39:50;;;;;;;7.10;2.10;;;;;;;13.46;81.13;100360.32;106645;1271;22528;-75
2022/07/12 04:42:17;;;;;;;4.40;2.30;;;;;;;13.50;81.02;100369.62;106758;1271;22851;-76
2022/07/12 04:44:44;;;;;;;4.50;2.50;;;;;;;13.51;81.08;100368.74;107407;1271;22595;-76
2022/07/12 04:47:11;;;;;;;6.80;2.40;;;;;;;13.51;81.05;100368.56;107997;1271;22640;-86
2022/07/12 04:49:40;;;;;;;3.20;1.90;;;;;;;13.50;80.98;100366.09;108988;1271;24180;-83
2022/07/12 04:52:07;;;;;;;4.60;2.00;;;;;;;13.49;81.05;100364.31;109330;1270;22528;-81
2022/07/12 04:54:34;;;;;;;3.90;2.40;;;;;;;13.51;81.19;100364.83;106682;1271;22531;-79
2022/07/12 04:57:01;;;;;;;6.20;2.70;;;;;;;13.56;81.11;100363.14;106612;1270;25390;-77
2022/07/12 04:59:28;;;;;;;5.60;2.50;;;;;;;13.61;81.08;100358.43;106637;1270;25483;-78
2022/07/12 05:01:54;;;;;;;4.90;2.10;;;;;;;13.64;81.03;100356.95;107526;1270;22470;-77
2022/07/12 05:04:21;;;;;;;5.30;2.40;;;;;;;13.64;81.01;100351.65;108637;1270;22571;-78
2022/07/12 05:06:49;;;;;;;6.40;2.00;;;;;;;13.68;81.03;100346.95;108111;1275;24261;-78
2022/07/12 05:09:16;;;;;;;4.10;2.20;;;;;;;13.70;80.86;100341.08;107987;1276;22548;-78
2022/07/12 05:11:43;;;;;;;5.60;2.40;;;;;;;13.74;80.84;100339.20;108301;1276;22781;-79
2022/07/12 05:14:10;;;;;;;6.00;2.30;;;;;;;13.77;80.87;100336.14;108593;1276;22724;-83
2022/07/12 05:16:37;;;;;;;5.80;1.90;;;;;;;13.83;80.86;100339.73;108438;1276;22600;-81
2022/07/12 05:19:04;;;;;;;7.00;2.40;;;;;;;13.88;80.73;100337.66;108444;1276;25239;-78
2022/07/12 05:21:33;;;;;;;3.20;2.10;;;;;;;13.92;80.48;100340.03;107945;1276;22531;-79
2022/07/12 05:24:03;;;;;;;2.90;1.70;;;;;;;13.98;80.47;100343.25;106739;1273;25245;-80
2022/07/12 05:26:31;;;;;;;3.90;1.70;;;;;;;14.03;80.39;100348.98;106063;1276;22684;-78
2022/07/12 05:28:58;;;;;;;2.90;1.70;;;;;;;14.08;80.43;100343.01;105843;1276;22735;-83
2022/07/12 05:31:26;;;;;;;3.80;1.70;;;;;;;14.14;80.40;100344.11;105564;1281;22604;-78
2022/07/12 05:33:53;;;;;;;2.60;1.90;;;;;;;14.19;80.16;100344.88;105429;1281;22569;-79
2022/07/12 05:36:20;;;;;;;3.50;2.30;;;;;;;14.23;80.14;100340.35;105349;1281;23271;-80
2022/07/12 05:38:47;;;;;;;3.10;1.90;;;;;;;14.22;80.03;100334.87;105540;1281;23066;-79
2022/07/12 05:41:14;;;;;;;3.20;1.90;;;;;;;14.25;80.19;100335.70;105543;1281;24465;-78
2022/07/12 05:43:41;;;;;;;9.80;2.20;;;;;;;14.32;80.14;100339.94;105458;1281;22668;-79
2022/07/12 05:46:08;;;;;;;6.90;2.10;;;;;;;14.39;80.05;100335.34;105722;1281;22591;-81
2022/07/12 05:48:37;;;;;;;6.20;1.90;;;;;;;14.45;79.93;100331.82;105511;1281;22740;-79
2022/07/12 05:53:49;;;;;;;5.10;2.00;;;;;;;14.49;79.68;100330.29;106012;1274;25367;-80
2022/07/12 05:56:17;;;;;;;5.20;1.70;;;;;;;14.55;79.85;100324.99;106009;1274;24255;-80
2022/07/12 05:58:44;;;;;;;8.00;1.40;;;;;;;14.63;79.70;100322.84;106026;1275;22539;-82
2022/07/12 06:01:10;;;;;;;5.20;1.80;;;;;;;14.69;79.44;100325.67;105920;1276;22714;-78
2022/07/12 06:03:37;;;;;;;5.40;1.80;;;;;;;14.78;79.56;100324.59;105206;1281;22705;-80
2022/07/12 06:06:04;;;;;;;5.00;1.50;;;;;;;14.85;79.28;100331.13;105453;1281;22557;-81
2022/07/12 06:08:31;;;;;;;5.50;1.40;;;;;;;14.91;79.03;100338.61;105403;1281;24300;-80
2022/07/12 06:10:58;;;;;;;3.30;1.70;;;;;;;14.89;78.90;100349.13;105292;1281;25515;-80
2022/07/12 06:13:25;;;;;;;2.10;1.00;;;;;;;14.87;78.89;100344.21;105493;1282;22771;-80
2022/07/12 06:15:52;;;;;;;7.00;1.60;;;;;;;14.86;78.90;100347.96;105511;1282;22519;-79
2022/07/12 06:18:19;;;;;;;1.30;1.20;;;;;;;14.84;78.98;100346.59;105656;1279;22565;-80
2022/07/12 06:20:46;;;;;;;5.00;1.50;;;;;;;14.85;78.96;100346.93;107072;1278;23912;-79
2022/07/12 06:23:12;;;;;;;8.60;1.60;;;;;;;14.87;79.05;100342.98;107548;1271;22557;-79
2022/07/12 06:25:40;;;;;;;2.20;1.30;;;;;;;14.98;78.99;100346.04;106576;1273;22583;-80
2022/07/12 06:28:10;;;;;;;5.00;2.60;;;;;;;15.06;78.83;100348.11;106092;1274;24384;-80
2022/07/12 06:30:37;;;;;;;5.30;2.50;;;;;;;15.15;78.76;100334.58;106181;1271;26485;-77
2022/07/12 06:33:05;;;;;;;4.30;2.10;;;;;;;15.26;78.44;100334.75;106253;1272;26583;-78
2022/07/12 06:35:33;;;;;;;5.40;1.90;;;;;;;15.32;77.80;100332.80;106387;1271;26700;-78
2022/07/12 06:38:02;;;;;;;3.30;1.50;;;;;;;15.41;77.82;100324.39;106309;1271;24897;-81
2022/07/12 06:40:29;;;;;;;5.20;1.00;;;;;;;15.55;77.52;100325.91;106011;1273;346768;-80
2022/07/12 06:42:56;;;;;;;1.50;1.20;;;;;;;15.64;77.31;100322.83;106119;1274;28220;-78
2022/07/12 06:45:24;;;;;;;2.60;1.10;;;;;;;15.71;76.93;100324.38;106323;1271;24274;-81
2022/07/12 06:47:53;;;;;;;3.50;1.50;;;;;;;15.79;76.67;100325.36;106373;1273;25254;-83
2022/07/12 06:50:20;;;;;;;1.90;1.40;;;;;;;15.87;76.43;100325.11;106248;1271;23746;-79
2022/07/12 06:52:46;;;;;;;6.10;1.20;;;;;;;15.93;76.27;100323.48;106159;1272;22706;-81
2022/07/12 06:55:14;;;;;;;2.40;0.90;;;;;;;16.01;76.14;100320.77;106206;1272;22711;-76
2022/07/12 06:57:41;;;;;;;3.50;1.10;;;;;;;16.08;75.68;100318.07;106443;1271;25337;-80
2022/07/12 07:00:09;;;;;;;2.20;1.20;;;;;;;16.14;75.29;100313.43;106107;1274;22566;-80
2022/07/12 07:02:39;;;;;;;4.40;1.00;;;;;;;16.19;75.36;100317.50;106226;1271;24209;-77
2022/07/12 07:05:07;;;;;;;2.30;1.30;;;;;;;16.25;74.92;100315.72;106482;1271;22525;-80
2022/07/12 07:07:34;;;;;;;4.80;1.20;;;;;;;16.33;74.72;100315.99;106180;1271;25367;-81
2022/07/12 07:10:01;;;;;;;2.40;1.10;;;;;;;16.45;74.28;100319.31;105889;1279;24280;-81
2022/07/12 07:12:28;;;;;;;2.40;0.80;;;;;;;16.53;73.51;100321.86;105687;1279;24179;-82
2022/07/12 07:14:55;;;;;;;1.30;1.10;;;;;;;16.60;73.46;100317.17;105693;1279;24076;-81
2022/07/12 07:17:22;;;;;;;2.80;1.20;;;;;;;16.67;72.87;100318.39;105487;1279;24264;-81
2022/07/12 07:19:49;;;;;;;1.60;1.10;;;;;;;16.73;72.64;100323.68;105606;1279;22646;-80
2022/07/12 07:22:16;;;;;;;4.80;2.00;;;;;;;16.78;72.57;100319.94;105591;1282;22616;-81
2022/07/12 07:24:43;;;;;;;2.00;1.20;;;;;;;16.92;72.35;100322.48;105355;1282;22747;-83
2022/07/12 07:27:10;;;;;;;3.30;1.70;;;;;;;17.00;71.77;100327.68;105313;1282;22534;-82
2022/07/12 07:32:23;;;;;;;4.90;1.80;;;;;;;17.17;71.07;100326.38;105423;1281;25243;-80
2022/07/12 07:34:49;;;;;;;2.10;1.00;;;;;;;17.22;70.92;100322.62;105253;1282;22606;-83
2022/07/12 07:37:16;;;;;;;3.00;1.50;;;;;;;17.27;70.40;100323.84;105438;1281;25988;-82
2022/07/12 07:39:43;;;;;;;2.00;1.20;;;;;;;17.33;70.50;100329.52;105304;1281;22615;-83
2022/07/12 07:42:10;;;;;;;2.30;1.70;;;;;;;17.39;69.44;100327.16;105749;1276;22640;-80
2022/07/12 07:44:37;;;;;;;3.30;1.50;;;;;;;17.40;69.44;100323.91;105949;1276;22519;-81
2022/07/12 07:47:23;;;;;;;1.60;1.10;;;;;;;17.42;68.83;100326.85;105959;1276;23961;-81
2022/07/12 07:49:55;;;;;;;2.40;1.30;;;;;;;17.38;67.93;100327.38;105874;1271;22543;-83
2022/07/12 07:52:22;;;;;;;5.80;1.90;;;;;;;17.37;68.04;100330.08;106130;1271;22771;-84
2022/07/12 07:54:49;;;;;;;5.30;2.10;;;;;;;17.41;68.09;100324.74;106317;1274;24063;-80
2022/07/12 07:57:16;;;;;;;7.20;2.50;;;;;;;17.51;67.97;100325.44;106224;1274;22535;-81
2022/07/12 07:59:43;;;;;;;2.20;1.70;;;;;;;17.59;67.66;100326.90;106333;1271;22583;-82
2022/07/12 08:02:11;;;;;;;2.40;1.50;;;;;;;17.67;67.49;100322.88;106237;1277;24268;-80
2022/07/12 08:04:38;;;;;;;2.60;1.20;;;;;;;17.66;67.05;100310.08;106631;1278;26583;-80
2022/07/12 08:07:05;;;;;;;2.90;1.30;;;;;;;17.73;66.93;100311.24;106478;1277;25341;-81
2022/07/12 08:09:32;;;;;;;2.20;1.40;;;;;;;17.78;66.53;100306.57;106476;1276;22871;-80
2022/07/12 08:11:59;;;;;;;1.40;0.80;;;;;;;17.84;66.42;100301.18;106412;1276;26515;-83
2022/07/12 08:14:26;;;;;;;3.00;1.40;;;;;;;17.90;66.60;100298.42;106088;1276;22522;-82
2022/07/12 08:16:53;;;;;;;2.50;1.10;;;;;;;17.93;66.49;100304.70;106158;1277;23915;-81
2022/07/12 08:19:20;;;;;;;2.40;1.00;;;;;;;17.94;65.61;100307.00;105550;1282;22822;-80
2022/07/12 08:21:47;;;;;;;2.70;1.20;;;;;;;17.88;65.45;100303.85;105871;1279;22554;-80
2022/07/12 08:24:14;;;;;;;3.40;1.40;;;;;;;17.86;65.98;100309.45;106085;1278;22549;-82
2022/07/12 08:26:41;;;;;;;2.80;1.10;;;;;;;17.89;65.10;100312.02;105841;1279;22566;-84
2022/07/12 08:29:08;;;;;;;3.40;1.20;;;;;;;17.87;64.56;100311.04;105823;1281;23819;-80
2022/07/12 08:31:36;;;;;;;2.00;1.00;;;;;;;17.87;64.61;100317.08;106385;1278;22997;-81
2022/07/12 08:34:03;;;;;;;2.60;1.00;;;;;;;17.86;64.34;100314.44;106228;1279;23495;-77
2022/07/12 08:36:30;;;;;;;2.20;1.10;;;;;;;17.87;63.96;100311.75;105989;1279;22574;-77
2022/07/12 08:38:59;;;;;;;2.50;1.00;;;;;;;17.84;63.32;100316.15;106062;1273;25212;-84
2022/07/12 08:41:26;;;;;;;1.70;1.00;;;;;;;17.87;63.27;100315.83;106473;1276;22479;-82
2022/07/12 08:43:53;;;;;;;2.30;1.10;;;;;;;17.91;63.10;100318.71;106681;1276;22561;-79
2022/07/12 08:46:20;;;;;;;2.70;1.40;;;;;;;17.95;63.31;100317.11;106348;1276;25410;-81
2022/07/12 08:48:47;;;;;;;1.30;1.20;;;;;;;18.00;62.95;100310.48;106142;1276;23017;-79
2022/07/12 08:51:19;;;;;;;3.40;1.30;;;;;;;17.98;62.87;100314.14;106106;1278;25373;-81
2022/07/12 08:53:49;;;;;;;4.30;1.70;;;;;;;18.00;62.51;100308.19;106276;1276;25321;-79
2022/07/12 08:56:37;;;;;;;2.40;1.50;;;;;;;18.05;62.17;100301.92;106582;1276;22551;-78
2022/07/12 08:59:16;;;;;;;1.80;1.40;;;;;;;18.12;62.41;100304.86;106898;1272;22594;-80
2022/07/12 09:01:51;;;;;;;3.90;2.20;;;;;;;18.15;62.29;100303.33;107201;1271;22479;-79
2022/07/12 09:04:21;;;;;;;2.70;1.10;;;;;;;18.18;62.47;100302.67;107048;1271;22715;-78
2022/07/12 09:06:48;;;;;;;1.90;0.90;;;;;;;18.23;62.91;100297.44;107121;1271;25401;-79
2022/07/12 09:09:31;;;;;;;1.90;0.90;;;;;;;18.34;62.97;100296.27;106773;1273;25511;-80
2022/07/12 09:11:58;;;;;;;2.60;0.80;;;;;;;18.40;62.30;100290.16;106750;1271;22547;-81
2022/07/12 09:14:26;;;;;;;3.70;1.10;;;;;;;18.47;62.10;100287.19;106679;1274;25316;-81
2022/07/12 09:17:12;;;;;;;1.00;0.70;;;;;;;18.55;62.41;100288.96;106630;1273;22643;-80
2022/07/12 09:19:39;;;;;;;3.20;1.20;;;;;;;18.62;61.84;100285.44;106452;1272;25447;-81
2022/07/12 09:22:25;;;;;;;1.80;1.00;;;;;;;18.63;61.59;100283.61;106338;1273;23982;-79
2022/07/12 09:24:51;;;;;;;3.20;0.90;;;;;;;18.67;61.20;100282.17;106331;1271;22536;-82
2022/07/12 09:27:25;;;;;;;3.70;0.90;;;;;;;18.73;60.96;100281.03;106187;1274;22544;-81
2022/07/12 09:29:52;;;;;;;3.60;1.00;;;;;;;18.77;60.57;100286.55;106156;1274;22545;-83
2022/07/12 09:38:09;;;;;;;2.90;1.40;;;;;;;18.87;60.41;100282.92;107065;1273;22465;-80
2022/07/12 09:40:37;;;;;;;2.20;0.80;;;;;;;18.91;60.58;100283.42;106350;1271;23193;-80
2022/07/12 09:43:05;;;;;;;2.50;1.30;;;;;;;18.96;59.80;100275.02;106153;1274;22768;-79
2022/07/12 09:45:32;;;;;;;1.90;1.00;;;;;;;18.97;60.07;100280.30;106155;1273;22530;-83
2022/07/12 09:48:00;;;;;;;3.50;1.10;;;;;;;19.02;59.84;100270.98;106308;1272;26589;-81
2022/07/12 09:50:30;;;;;;;4.00;0.70;;;;;;;19.07;60.11;100273.61;106243;1271;24257;-79
2022/07/12 09:53:00;;;;;;;4.00;1.30;;;;;;;19.14;59.96;100279.76;106170;1272;23582;-81
2022/07/12 09:55:30;;;;;;;1.10;0.80;;;;;;;19.14;59.07;100272.95;106228;1274;24231;-79
2022/07/12 09:58:01;;;;;;;2.60;0.90;;;;;;;19.10;59.14;100280.45;106351;1271;25252;-79
2022/07/12 10:00:29;;;;;;;1.60;0.70;;;;;;;19.08;59.17;100271.45;106111;1274;22662;-81
2022/07/12 10:02:59;;;;;;;3.10;0.90;;;;;;;19.05;59.22;100278.85;106165;1271;22545;-80
2022/07/12 10:05:27;;;;;;;1.10;0.80;;;;;;;19.08;59.04;100274.48;106123;1272;22554;-81
2022/07/12 10:07:54;;;;;;;2.00;1.00;;;;;;;19.04;58.97;100268.56;106206;1272;22633;-79
2022/07/12 10:10:23;;;;;;;1.70;0.80;;;;;;;19.05;59.18;100269.77;106059;1271;22557;-80
2022/07/12 10:12:51;;;;;;;3.60;1.10;;;;;;;19.11;59.22;100266.14;106199;1271;25263;-77
2022/07/12 10:15:22;;;;;;;4.20;1.00;;;;;;;19.13;58.74;100266.40;106168;1271;25261;-79
2022/07/12 10:17:58;;;;;;;1.70;0.80;;;;;;;19.16;59.07;100264.45;106253;1271;22537;-81
2022/07/12 10:20:26;;;;;;;3.20;0.80;;;;;;;19.21;58.96;100257.65;106064;1273;22544;-79
2022/07/12 10:22:55;;;;;;;1.10;0.90;;;;;;;19.21;58.92;100261.76;106407;1272;25593;-80
2022/07/12 10:25:25;;;;;;;1.40;0.80;;;;;;;19.21;59.08;100257.30;106141;1272;22557;-80
2022/07/12 10:27:52;;;;;;;3.20;0.90;;;;;;;19.22;59.21;100251.89;106208;1271;22574;-81
2022/07/12 10:30:22;;;;;;;6.00;0.90;;;;;;;19.21;58.43;100257.84;106037;1272;25549;-80
2022/07/12 10:32:53;;;;;;;1.00;0.60;;;;;;;19.16;58.34;100260.38;106091;1271;22589;-81
2022/07/12 10:35:22;;;;;;;1.80;0.90;;;;;;;19.20;58.53;100255.91;106160;1271;24233;-79
2022/07/12 10:38:11;;;;;;;1.50;0.80;;;;;;;19.24;58.40;100246.98;105941;1271;22528;-80
2022/07/12 10:40:40;;;;;;;3.30;0.60;;;;;;;19.22;57.88;100245.85;106196;1271;23791;-81
2022/07/12 10:43:07;;;;;;;0.90;0.80;;;;;;;19.21;57.93;100243.54;106191;1271;24232;-80
2022/07/12 10:45:40;;;;;;;2.70;0.80;;;;;;;19.22;58.06;100239.75;106843;1273;22497;-80
2022/07/12 10:48:19;;;;;;;2.90;0.80;;;;;;;19.24;58.24;100234.81;107370;1271;22474;-80
2022/07/12 10:50:48;;;;;;;5.80;1.00;;;;;;;19.31;58.30;100241.29;106724;1271;22547;-80
2022/07/12 10:53:18;;;;;;;3.40;1.10;;;;;;;19.35;58.31;100240.00;106128;1272;22547;-80
2022/07/12 10:56:03;;;;;;;1.40;0.70;;;;;;;19.31;57.71;100241.30;106230;1271;22672;-80
2022/07/12 10:58:33;;;;;;;2.20;0.70;;;;;;;19.29;57.56;100239.59;106249;1271;22551;-80
2022/07/12 11:01:05;;;;;;;4.30;0.70;;;;;;;19.24;57.51;100238.24;106035;1277;22534;-80
2022/07/12 11:03:52;;;;;;;3.70;0.70;;;;;;;19.22;57.39;100230.30;105865;1277;22846;-80
2022/07/12 11:06:22;;;;;;;1.10;0.60;;;;;;;19.20;56.68;100231.61;106099;1276;24082;-80
2022/07/12 11:08:54;;;;;;;0.90;0.80;;;;;;;19.17;56.88;100229.79;105920;1277;25503;-81
2022/07/12 11:11:23;;;;;;;0.60;0.50;;;;;;;19.18;56.80;100227.63;105958;1276;25316;-80
2022/07/12 11:13:51;;;;;;;5.00;0.90;;;;;;;19.17;56.62;100224.10;105934;1276;22969;-80
2022/07/12 11:16:18;;;;;;;3.70;0.90;;;;;;;19.15;56.48;100219.19;105918;1277;22873;-79
2022/07/12 11:18:46;;;;;;;3.50;1.00;;;;;;;19.17;56.40;100214.80;105902;1278;24237;-80
2022/07/12 11:21:13;;;;;;;1.30;0.60;;;;;;;19.23;56.03;100221.86;106390;1271;22858;-81
2022/07/12 11:23:41;;;;;;;1.80;0.70;;;;;;;19.27;55.71;100220.23;106281;1271;24244;-83
2022/07/12 11:26:10;;;;;;;2.30;0.80;;;;;;;19.30;55.80;100218.11;106163;1274;22530;-82
2022/07/12 11:28:38;;;;;;;4.20;0.80;;;;;;;19.34;55.32;100220.64;106142;1274;24365;-80
2022/07/12 11:31:06;;;;;;;2.00;0.60;;;;;;;19.35;55.49;100211.64;106122;1272;23961;-80
2022/07/12 11:33:38;;;;;;;1.30;0.80;;;;;;;19.35;55.42;100211.64;106173;1271;24246;-80